KWAL/WAL METAR and TAF weather

Enter ICAO airport designator
Station Type Date Time Source
KWAL METAR 2019/12/07 04:54 UTC NOAA

KWAL 070454Z AUTO 29007KT 10SM CLR 08/03 A3014 RMK AO2 SLP204 T00830033 401391028


Station Type Date Time Source
KWAL Decoded METAR 2019/12/07 04:54 UTC NOAA

WALLOPS FLIGHT FAC AIRPORT , VA, United States (KWAL) 37-56N 075-28W 14M
Dec 06, 2019 - 11:54 PM EST / 2019.12.07 0454 UTC
Wind: from the WNW (290 degrees) at 8 MPH (7 KT):0
Visibility: 10 mile(s):0
Sky conditions: clear
Temperature: 46.9 F (8.3 C)
Dew Point: 37.9 F (3.3 C)
Relative Humidity: 70%
Pressure (altimeter): 30.14 in. Hg (1020 hPa)
ob: KWAL 070454Z AUTO 29007KT 10SM CLR 08/03 A3014 RMK AO2 SLP204 T00830033 401391028
cycle: 5

Station Type Date Time Source
KWAL TAF UTC NOAA

Error!

Example: see airport list